createdAt,value
2022-09-28T00:02:44.783Z,8.50
2022-09-28T00:05:33.463Z,8.59
2022-09-28T00:08:23.332Z,8.43
2022-09-28T00:11:15.555Z,8.95
2022-09-28T00:14:07.436Z,9.06
2022-09-28T00:16:56.023Z,8.98
2022-09-28T00:19:45.278Z,8.96
2022-09-28T00:22:33.968Z,8.93
2022-09-28T00:25:25.119Z,9.01
2022-09-28T00:28:13.616Z,9.10
2022-09-28T00:31:02.277Z,8.68
2022-09-28T00:33:52.045Z,8.68
2022-09-28T00:36:40.968Z,8.85
2022-09-28T00:39:31.802Z,8.01
2022-09-28T00:42:23.448Z,8.72
2022-09-28T00:45:12.143Z,8.53
2022-09-28T00:48:00.921Z,8.28
2022-09-28T00:50:49.443Z,8.52
2022-09-28T00:53:39.736Z,8.25
2022-09-28T00:56:32.445Z,8.20
2022-09-28T00:59:25.098Z,8.58
2022-09-28T01:02:14.072Z,8.45
2022-09-28T01:05:04.663Z,8.21
2022-09-28T01:07:53.243Z,8.53
2022-09-28T01:10:43.948Z,8.46
2022-09-28T01:13:34.194Z,8.39
2022-09-28T01:16:35.483Z,8.44
2022-09-28T01:19:47.666Z,8.00
2022-09-28T01:23:06.637Z,8.37
2022-09-28T01:26:00.372Z,8.34
2022-09-28T01:28:54.749Z,7.81
2022-09-28T01:31:48.855Z,8.01
2022-09-28T01:34:44.613Z,8.30
2022-09-28T01:37:39.792Z,8.20
2022-09-28T01:40:30.129Z,7.90
2022-09-28T01:43:22.574Z,7.92
2022-09-28T01:46:16.399Z,8.15
2022-09-28T01:49:09.347Z,8.32
2022-09-28T01:52:03.942Z,7.93
2022-09-28T01:54:58.624Z,8.22
2022-09-28T01:57:51.776Z,7.95
2022-09-28T02:00:44.446Z,7.60
2022-09-28T02:03:40.262Z,7.76
2022-09-28T02:06:34.647Z,8.00
2022-09-28T02:09:31.687Z,8.03
2022-09-28T02:12:29.520Z,8.11
2022-09-28T02:15:21.755Z,7.12
2022-09-28T02:18:11.723Z,7.03
2022-09-28T02:21:08.258Z,7.97
2022-09-28T02:23:59.612Z,7.99
2022-09-28T02:26:51.174Z,7.74
2022-09-28T02:29:39.756Z,8.19
2022-09-28T02:32:32.565Z,7.97
2022-09-28T02:35:22.181Z,8.21
2022-09-28T02:38:13.791Z,7.94
2022-09-28T02:41:06.865Z,7.65
2022-09-28T02:44:08.650Z,7.65
2022-09-28T02:47:05.751Z,8.22
2022-09-28T02:50:00.855Z,8.09
2022-09-28T02:53:06.537Z,5.48
2022-09-28T02:56:11.468Z,8.04
2022-09-28T02:59:09.217Z,7.59
2022-09-28T03:02:04.053Z,6.99
2022-09-28T03:05:05.422Z,8.08
2022-09-28T03:08:00.690Z,7.73
2022-09-28T03:10:55.397Z,7.54
2022-09-28T03:13:45.530Z,7.89
2022-09-28T03:16:34.294Z,7.55
2022-09-28T03:19:26.193Z,7.33
2022-09-28T03:22:14.712Z,7.08
2022-09-28T03:25:03.133Z,7.33
2022-09-28T03:27:51.712Z,7.48
2022-09-28T03:30:42.237Z,7.17
2022-09-28T03:33:31.118Z,7.31
2022-09-28T03:36:19.903Z,7.30
2022-09-28T03:39:08.497Z,7.31
2022-09-28T03:41:56.998Z,7.56
2022-09-28T03:44:45.596Z,6.90
2022-09-28T03:47:35.752Z,6.83
2022-09-28T03:50:24.288Z,7.48
2022-09-28T03:53:12.759Z,7.22
2022-09-28T03:56:05.142Z,7.29
2022-09-28T03:58:53.649Z,6.53
2022-09-28T04:01:42.590Z,7.13
2022-09-28T04:04:32.750Z,7.44
2022-09-28T04:07:21.273Z,6.66
2022-09-28T04:10:10.904Z,7.11
2022-09-28T04:12:59.658Z,6.91
2022-09-28T04:15:54.663Z,6.80
2022-09-28T04:18:44.059Z,7.11
2022-09-28T04:21:34.265Z,6.87
2022-09-28T04:24:22.802Z,6.78
2022-09-28T04:27:28.530Z,6.98
2022-09-28T04:30:17.578Z,5.47
2022-09-28T04:33:06.130Z,7.51
2022-09-28T04:35:54.660Z,7.58
2022-09-28T04:38:53.528Z,7.71
2022-09-28T04:41:42.564Z,7.73
2022-09-28T04:44:31.088Z,7.63
2022-09-28T04:47:19.664Z,7.50
2022-09-28T04:50:09.012Z,7.64
2022-09-28T04:52:57.539Z,7.83
2022-09-28T04:55:56.712Z,7.23
2022-09-28T04:58:50.285Z,7.81
2022-09-28T05:01:41.039Z,7.79
2022-09-28T05:04:30.674Z,7.03
2022-09-28T05:07:19.178Z,7.14
2022-09-28T05:10:08.104Z,7.11
2022-09-28T05:12:57.956Z,7.77
2022-09-28T05:15:46.492Z,7.83
2022-09-28T05:18:35.010Z,7.57
2022-09-28T05:21:25.598Z,7.29
2022-09-28T05:24:14.442Z,7.76
2022-09-28T05:27:03.307Z,7.97
2022-09-28T05:29:53.212Z,7.63
2022-09-28T05:32:42.150Z,7.80
2022-09-28T05:35:30.849Z,8.11
2022-09-28T05:38:19.383Z,8.12
2022-09-28T05:41:08.051Z,7.55
2022-09-28T05:43:57.643Z,7.72
2022-09-28T05:46:47.586Z,7.63
2022-09-28T05:49:36.105Z,8.10
2022-09-28T05:52:24.583Z,7.40
2022-09-28T05:55:13.252Z,8.13
2022-09-28T05:58:03.046Z,8.19
2022-09-28T06:00:55.636Z,8.26
2022-09-28T06:03:45.505Z,7.94
2022-09-28T06:06:35.926Z,7.54
2022-09-28T06:09:26.067Z,7.96
2022-09-28T06:12:16.145Z,7.97
2022-09-28T06:15:05.512Z,7.95
2022-09-28T06:17:58.837Z,8.47
2022-09-28T06:20:48.762Z,8.06
2022-09-28T06:23:37.380Z,8.64
2022-09-28T06:26:25.976Z,8.77
2022-09-28T06:29:20.040Z,8.71
2022-09-28T06:32:08.695Z,8.76
2022-09-28T06:34:57.407Z,8.96
2022-09-28T06:37:47.502Z,9.17
2022-09-28T06:40:36.866Z,8.85
2022-09-28T06:43:25.841Z,8.74
2022-09-28T06:46:15.190Z,9.19
2022-09-28T06:49:04.825Z,9.67
2022-09-28T06:51:53.619Z,9.00
2022-09-28T06:54:43.525Z,9.28
2022-09-28T06:57:32.183Z,10.02
2022-09-28T07:00:20.832Z,10.03
2022-09-28T07:03:12.625Z,9.30
2022-09-28T07:06:02.242Z,9.68
2022-09-28T07:08:56.970Z,9.67
2022-09-28T07:11:55.987Z,9.82
2022-09-28T07:14:48.108Z,9.65
2022-09-28T07:17:48.004Z,9.89
2022-09-28T07:20:53.149Z,8.95
2022-09-28T07:23:52.947Z,10.05
2022-09-28T07:26:43.404Z,10.28
2022-09-28T07:29:33.522Z,10.44
2022-09-28T07:32:22.876Z,10.97
2022-09-28T07:35:11.414Z,11.07
2022-09-28T07:38:01.732Z,11.31
2022-09-28T07:41:07.779Z,11.58
2022-09-28T07:43:56.347Z,11.42
2022-09-28T07:46:46.774Z,11.50
2022-09-28T07:49:35.442Z,12.00
2022-09-28T07:52:26.434Z,11.38
2022-09-28T07:55:15.038Z,12.21
2022-09-28T07:58:03.633Z,11.65
2022-09-28T08:00:52.934Z,11.94
2022-09-28T08:03:45.468Z,11.23
2022-09-28T08:06:33.958Z,11.91
2022-09-28T08:09:22.518Z,10.98
2022-09-28T08:12:11.818Z,11.55
2022-09-28T08:15:00.342Z,11.48
2022-09-28T08:17:50.106Z,11.31
2022-09-28T08:20:57.742Z,9.95
2022-09-28T08:23:46.342Z,11.68
2022-09-28T08:26:35.017Z,11.28
2022-09-28T08:29:23.778Z,11.75
2022-09-28T08:32:12.418Z,12.13
2022-09-28T08:35:01.058Z,12.49
2022-09-28T08:37:55.688Z,12.51
2022-09-28T08:40:53.601Z,12.31
2022-09-28T08:43:56.839Z,12.84
2022-09-28T08:46:49.137Z,12.81
2022-09-28T08:49:43.446Z,12.67
2022-09-28T08:52:35.924Z,12.85
2022-09-28T08:55:32.106Z,12.62
2022-09-28T08:58:28.684Z,12.79
2022-09-28T09:01:20.680Z,13.11
2022-09-28T09:04:10.896Z,13.06
2022-09-28T09:07:23.629Z,12.98
2022-09-28T09:10:30.636Z,12.91
2022-09-28T09:13:52.914Z,11.98
2022-09-28T09:17:00.267Z,12.86
2022-09-28T09:19:54.760Z,12.92
2022-09-28T09:22:53.966Z,12.81
2022-09-28T09:25:48.224Z,12.22
2022-09-28T09:28:52.259Z,12.41
2022-09-28T09:31:59.747Z,12.61
2022-09-28T09:35:14.869Z,12.23
2022-09-28T09:38:17.579Z,12.67
2022-09-28T09:41:17.061Z,12.49
2022-09-28T09:44:33.953Z,11.62
2022-09-28T09:47:29.273Z,12.60
2022-09-28T09:50:30.298Z,13.11
2022-09-28T09:53:28.483Z,13.35
2022-09-28T09:56:21.993Z,13.29
2022-09-28T09:59:16.514Z,12.94
2022-09-28T10:02:17.059Z,12.87
2022-09-28T10:05:16.227Z,13.29
2022-09-28T10:08:12.965Z,13.21
2022-09-28T10:11:09.679Z,13.43
2022-09-28T10:13:58.563Z,13.59
2022-09-28T10:16:49.597Z,12.96
2022-09-28T10:19:38.472Z,13.30
2022-09-28T10:22:28.727Z,13.88
2022-09-28T10:25:17.443Z,12.97
2022-09-28T10:28:08.218Z,13.06
2022-09-28T10:30:57.084Z,13.49
2022-09-28T10:33:47.225Z,13.59
2022-09-28T10:36:48.994Z,13.32
2022-09-28T10:39:41.309Z,13.52
2022-09-28T10:42:32.947Z,13.74
2022-09-28T10:45:23.515Z,12.75
2022-09-28T10:48:20.440Z,13.63
2022-09-28T10:51:10.472Z,12.91
2022-09-28T10:54:02.163Z,13.02
2022-09-28T10:56:56.140Z,13.66
2022-09-28T10:59:46.922Z,13.60
2022-09-28T11:02:38.935Z,13.37
2022-09-28T11:05:29.175Z,13.77
2022-09-28T11:08:26.744Z,13.05
2022-09-28T11:11:17.547Z,14.28
2022-09-28T11:14:06.231Z,14.29
2022-09-28T11:17:20.403Z,13.27
2022-09-28T11:20:36.127Z,13.43
2022-09-28T11:23:31.294Z,14.12
2022-09-28T11:26:20.244Z,13.86
2022-09-28T11:29:21.704Z,14.60
2022-09-28T11:32:15.675Z,14.72
2022-09-28T11:35:07.003Z,14.78
2022-09-28T11:38:11.093Z,14.76
2022-09-28T11:41:17.840Z,15.23
2022-09-28T11:44:41.452Z,15.40
2022-09-28T11:47:57.832Z,15.61
2022-09-28T11:50:51.011Z,16.10
2022-09-28T11:53:45.195Z,16.43
2022-09-28T11:56:39.241Z,16.56
2022-09-28T11:59:32.859Z,16.74
2022-09-28T12:02:26.357Z,16.63
2022-09-28T12:05:21.795Z,16.97
2022-09-28T12:08:16.027Z,17.71
2022-09-28T12:11:11.098Z,18.02
2022-09-28T12:14:04.024Z,17.60
2022-09-28T12:17:06.834Z,17.58
2022-09-28T12:20:04.365Z,17.66
2022-09-28T12:23:04.366Z,17.52
2022-09-28T12:25:56.901Z,18.00
2022-09-28T12:28:49.316Z,18.22
2022-09-28T12:31:44.171Z,17.83
2022-09-28T12:34:33.205Z,17.45
2022-09-28T12:37:34.420Z,16.42
2022-09-28T12:40:38.353Z,17.15
2022-09-28T12:43:42.049Z,16.78
2022-09-28T12:46:47.944Z,16.50
2022-09-28T12:50:36.948Z,16.15
2022-09-28T12:53:12.075Z,15.95
2022-09-28T12:56:04.785Z,15.69
2022-09-28T12:59:02.488Z,15.68
2022-09-28T13:02:16.072Z,15.33
2022-09-28T13:05:24.408Z,15.47
2022-09-28T13:08:20.686Z,15.74
2022-09-28T13:11:21.050Z,15.42
2022-09-28T13:14:40.282Z,16.02
2022-09-28T13:17:46.703Z,15.94
2022-09-28T13:20:49.345Z,16.57
2022-09-28T13:23:42.708Z,16.72
2022-09-28T13:26:35.567Z,16.79
2022-09-28T13:29:27.192Z,16.30
2022-09-28T13:32:16.754Z,16.69
2022-09-28T13:35:07.720Z,16.48
2022-09-28T13:38:29.340Z,16.37
2022-09-28T13:41:21.425Z,15.71
2022-09-28T13:44:59.645Z,16.26
2022-09-28T13:47:59.416Z,15.90
2022-09-28T13:51:11.057Z,16.48
2022-09-28T13:54:13.295Z,15.99
2022-09-28T13:57:14.125Z,16.45
2022-09-28T14:00:16.350Z,16.01
2022-09-28T14:03:15.091Z,16.36
2022-09-28T14:06:22.142Z,15.55
2022-09-28T14:09:27.425Z,16.24
2022-09-28T14:12:49.865Z,16.22
2022-09-28T14:15:47.095Z,15.85
2022-09-28T14:18:36.235Z,15.88
2022-09-28T14:21:54.046Z,15.55
2022-09-28T14:25:07.105Z,15.92
2022-09-28T14:28:07.115Z,15.75
2022-09-28T14:30:58.632Z,16.04
2022-09-28T14:33:58.365Z,16.07
2022-09-28T14:37:08.018Z,15.85
2022-09-28T14:40:14.082Z,15.98
2022-09-28T14:43:26.134Z,16.08
2022-09-28T14:46:36.329Z,16.04
2022-09-28T14:49:47.165Z,16.00
2022-09-28T14:52:47.801Z,15.90
2022-09-28T14:55:48.800Z,15.54
2022-09-28T14:58:38.870Z,15.35
2022-09-28T15:01:28.082Z,15.61
2022-09-28T15:04:18.270Z,15.50
2022-09-28T15:07:07.023Z,14.82
2022-09-28T15:09:58.800Z,15.25
2022-09-28T15:12:47.622Z,14.66
2022-09-28T15:15:39.415Z,15.31
2022-09-28T15:19:03.438Z,15.46
2022-09-28T15:21:52.976Z,15.20
2022-09-28T15:24:46.178Z,15.36
2022-09-28T15:27:41.416Z,15.32
2022-09-28T15:30:32.111Z,15.22
2022-09-28T15:33:43.998Z,15.20
2022-09-28T15:36:36.009Z,14.91
2022-09-28T15:39:32.046Z,15.04
2022-09-28T15:42:21.179Z,14.88
2022-09-28T15:45:28.136Z,15.01
2022-09-28T15:48:21.827Z,14.77
2022-09-28T15:51:12.249Z,14.48
2022-09-28T15:54:04.525Z,14.82
2022-09-28T15:56:57.935Z,14.87
2022-09-28T15:59:57.131Z,14.83
2022-09-28T16:03:05.546Z,14.66
2022-09-28T16:06:08.004Z,14.39
2022-09-28T16:08:56.554Z,14.86
2022-09-28T16:11:45.295Z,14.83
2022-09-28T16:14:34.024Z,14.57
2022-09-28T16:17:33.043Z,14.65
2022-09-28T16:20:30.128Z,14.73
2022-09-28T16:23:25.234Z,14.64
2022-09-28T16:26:26.638Z,14.57
2022-09-28T16:29:27.346Z,14.17
2022-09-28T16:32:50.487Z,14.48
2022-09-28T16:35:53.404Z,14.10
2022-09-28T16:38:44.832Z,14.40
2022-09-28T16:41:35.677Z,14.26
2022-09-28T16:44:27.713Z,13.97
2022-09-28T16:47:16.255Z,14.11
2022-09-28T16:50:06.924Z,14.31
2022-09-28T16:53:19.646Z,14.21
2022-09-28T16:56:08.977Z,14.13
2022-09-28T16:58:58.282Z,14.19
2022-09-28T17:01:47.397Z,14.20
2022-09-28T17:04:36.130Z,14.13
2022-09-28T17:07:25.110Z,13.65
2022-09-28T17:10:30.620Z,13.83
2022-09-28T17:13:19.126Z,13.28
2022-09-28T17:16:13.098Z,13.52
2022-09-28T17:19:02.037Z,13.77
2022-09-28T17:21:51.285Z,13.87
2022-09-28T17:24:40.057Z,13.79
2022-09-28T17:27:30.895Z,13.21
2022-09-28T17:30:23.851Z,13.27
2022-09-28T17:33:14.735Z,13.89
2022-09-28T17:36:05.369Z,13.48
2022-09-28T17:38:55.364Z,13.54
2022-09-28T17:41:44.124Z,13.64
2022-09-28T17:44:34.203Z,13.81
2022-09-28T17:47:23.252Z,13.59
2022-09-28T17:50:21.543Z,13.33
2022-09-28T17:53:10.984Z,13.25
2022-09-28T17:56:00.115Z,13.68
2022-09-28T17:58:49.232Z,13.31
2022-09-28T18:01:40.845Z,13.10
2022-09-28T18:04:50.891Z,13.11
2022-09-28T18:07:38.481Z,13.21
2022-09-28T18:10:30.045Z,12.87
2022-09-28T18:13:18.825Z,13.35
2022-09-28T18:16:07.984Z,13.31
2022-09-28T18:18:59.693Z,12.86
2022-09-28T18:21:48.765Z,13.09
2022-09-28T18:24:40.301Z,13.54
2022-09-28T18:27:30.552Z,13.05
2022-09-28T18:30:19.746Z,13.36
2022-09-28T18:33:09.090Z,13.71
2022-09-28T18:35:59.243Z,13.54
2022-09-28T18:38:48.038Z,13.25
2022-09-28T18:41:36.724Z,12.89
2022-09-28T18:44:25.490Z,13.35
2022-09-28T18:47:15.420Z,13.33
2022-09-28T18:50:04.350Z,13.13
2022-09-28T18:53:11.515Z,12.75
2022-09-28T18:56:00.742Z,13.44
2022-09-28T18:58:51.853Z,13.31
2022-09-28T19:01:42.010Z,12.95
2022-09-28T19:04:31.346Z,12.96
2022-09-28T19:07:20.204Z,13.18
2022-09-28T19:10:10.884Z,12.62
2022-09-28T19:13:01.814Z,13.10
2022-09-28T19:15:51.298Z,12.74
2022-09-28T19:18:40.949Z,13.13
2022-09-28T19:21:30.716Z,13.29
2022-09-28T19:24:21.161Z,13.20
2022-09-28T19:27:11.647Z,12.41
2022-09-28T19:30:00.555Z,12.91
2022-09-28T19:32:49.154Z,12.72
2022-09-28T19:35:38.031Z,12.89
2022-09-28T19:38:29.480Z,12.53
2022-09-28T19:41:43.040Z,12.49
2022-09-28T19:44:36.201Z,13.00
2022-09-28T19:47:25.227Z,12.89
2022-09-28T19:50:13.936Z,12.06
2022-09-28T19:53:02.686Z,12.50
2022-09-28T19:55:55.383Z,12.99
2022-09-28T19:58:44.205Z,12.95
2022-09-28T20:01:35.268Z,12.96
2022-09-28T20:04:24.115Z,13.06
2022-09-28T20:07:13.140Z,13.02
2022-09-28T20:10:01.875Z,12.93
2022-09-28T20:12:56.148Z,12.70
2022-09-28T20:15:44.980Z,12.55
2022-09-28T20:18:36.640Z,12.09
2022-09-28T20:21:27.058Z,13.08
2022-09-28T20:24:17.216Z,13.05
2022-09-28T20:27:05.928Z,12.84
2022-09-28T20:29:54.806Z,13.07
2022-09-28T20:32:48.756Z,13.07
2022-09-28T20:35:40.695Z,13.06
2022-09-28T20:38:31.399Z,13.09
2022-09-28T20:41:22.285Z,12.46
2022-09-28T20:44:11.025Z,12.69
2022-09-28T20:47:00.022Z,12.35
2022-09-28T20:49:48.790Z,12.65
2022-09-28T20:52:39.016Z,13.12
2022-09-28T20:55:28.000Z,13.00
2022-09-28T20:58:17.317Z,12.61
2022-09-28T21:01:09.496Z,12.59
2022-09-28T21:03:59.681Z,12.73
2022-09-28T21:06:48.307Z,13.05
2022-09-28T21:09:38.885Z,13.07
2022-09-28T21:12:28.353Z,12.65
2022-09-28T21:15:17.145Z,12.93
2022-09-28T21:18:06.038Z,13.03
2022-09-28T21:20:55.025Z,12.62
2022-09-28T21:23:45.054Z,12.87
2022-09-28T21:26:35.741Z,13.09
2022-09-28T21:29:24.407Z,13.09
2022-09-28T21:32:13.189Z,12.72
2022-09-28T21:35:02.601Z,12.53
2022-09-28T21:37:51.645Z,13.05
2022-09-28T21:40:40.482Z,12.55
2022-09-28T21:43:32.078Z,12.89
2022-09-28T21:46:21.052Z,12.56
2022-09-28T21:49:14.436Z,12.99
2022-09-28T21:52:03.407Z,13.11
2022-09-28T21:54:52.207Z,12.95
2022-09-28T21:57:40.839Z,12.52
2022-09-28T22:00:30.909Z,13.10
2022-09-28T22:03:19.456Z,13.08
2022-09-28T22:06:08.993Z,12.88
2022-09-28T22:08:58.050Z,12.64
2022-09-28T22:11:49.195Z,13.11
2022-09-28T22:14:37.762Z,13.00
2022-09-28T22:17:28.365Z,12.73
2022-09-28T22:20:17.108Z,12.81
2022-09-28T22:23:05.780Z,12.92
2022-09-28T22:25:59.580Z,13.18
2022-09-28T22:28:49.723Z,12.88
2022-09-28T22:31:41.564Z,12.60
2022-09-28T22:34:32.378Z,12.81
2022-09-28T22:37:20.966Z,13.13
2022-09-28T22:40:11.872Z,13.18
2022-09-28T22:43:00.424Z,12.40
2022-09-28T22:45:49.281Z,13.11
2022-09-28T22:48:38.634Z,13.18
2022-09-28T22:51:31.100Z,12.66
2022-09-28T22:54:19.758Z,13.17
2022-09-28T22:57:08.494Z,12.37
2022-09-28T22:59:57.019Z,12.94
2022-09-28T23:02:46.066Z,13.18
2022-09-28T23:05:30.745Z,13.18
2022-09-28T23:08:20.937Z,13.18
2022-09-28T23:11:09.904Z,13.26
2022-09-28T23:14:00.534Z,13.25
2022-09-28T23:16:48.994Z,13.28
2022-09-28T23:19:37.521Z,13.10
2022-09-28T23:22:26.022Z,13.19
2022-09-28T23:25:16.707Z,13.16
2022-09-28T23:28:05.124Z,13.17
2022-09-28T23:30:54.017Z,13.11
2022-09-28T23:33:42.666Z,13.27
2022-09-28T23:36:31.937Z,13.13
2022-09-28T23:39:20.657Z,13.26
2022-09-28T23:42:10.586Z,13.14
2022-09-28T23:44:59.044Z,13.25
2022-09-28T23:47:48.298Z,13.20
2022-09-28T23:50:36.801Z,13.09
2022-09-28T23:53:25.323Z,13.17
2022-09-28T23:56:14.516Z,13.13
2022-09-28T23:59:04.507Z,13.21
